Time;durP1;ratioP1;P1;durP2;ratioP2;P2;SDS_P1;SDS_P2;PMS_P1;PMS_P2;Temp;Humidity;BMP_temperature;BMP_pressure;BME280_temperature;BME280_humidity;BME280_pressure;Samples;Min_cycle;Max_cycle;Signal;HPM_P1;HPM_P2
2022/04/05 00:02:06;;;;;;;3.72;1.25;;;;;;;;;;6089261;23;20029;-47
2022/04/05 00:04:32;;;;;;;4.30;1.95;;;;;;;;;;6117319;23;20090;-49
2022/04/05 00:06:57;;;;;;;2.75;1.50;;;;;;;;;;6115691;23;20085;-47
2022/04/05 00:09:22;;;;;;;4.75;1.55;;;;;;;;;;6116432;23;20041;-46
2022/04/05 00:11:47;;;;;;;3.63;1.52;;;;;;;;;;6116779;23;20033;-46
2022/04/05 00:14:13;;;;;;;1.92;1.20;;;;;;;;;;6117895;23;20030;-46
2022/04/05 00:16:38;;;;;;;1.70;1.60;;;;;;;;;;6115696;23;20006;-47
2022/04/05 00:19:03;;;;;;;3.28;2.03;;;;;;;;;;6118719;23;20010;-46
2022/04/05 00:21:28;;;;;;;3.95;2.20;;;;;;;;;;6088578;23;20045;-47
2022/04/05 00:23:54;;;;;;;1.50;1.40;;;;;;;;;;6119202;23;20022;-45
2022/04/05 00:26:19;;;;;;;2.20;1.75;;;;;;;;;;6114996;23;20014;-44
2022/04/05 00:28:44;;;;;;;1.77;1.60;;;;;;;;;;6118250;23;20006;-46
2022/04/05 00:31:09;;;;;;;2.00;1.70;;;;;;;;;;6116888;23;20028;-47
2022/04/05 00:33:35;;;;;;;2.33;1.63;;;;;;;;;;6117523;23;20025;-45
2022/04/05 00:36:00;;;;;;;4.32;2.13;;;;;;;;;;6117159;23;20069;-46
2022/04/05 00:38:25;;;;;;;4.80;1.88;;;;;;;;;;6117976;23;20041;-46
2022/04/05 00:40:51;;;;;;;2.88;1.90;;;;;;;;;;6114684;23;20314;-47
2022/04/05 00:43:16;;;;;;;2.20;1.80;;;;;;;;;;6118448;23;20477;-48
2022/04/05 00:45:41;;;;;;;1.67;1.58;;;;;;;;;;6118370;23;20443;-46
2022/04/05 00:48:07;;;;;;;7.45;2.03;;;;;;;;;;6121108;23;20010;-45
2022/04/05 00:50:36;;;;;;;2.72;1.95;;;;;;;;;;6117434;23;20022;-50
2022/04/05 00:53:03;;;;;;;3.45;2.10;;;;;;;;;;6120340;23;20639;-46
2022/04/05 00:55:29;;;;;;;2.22;1.85;;;;;;;;;;6118013;23;20022;-45
2022/04/05 00:57:57;;;;;;;4.55;2.47;;;;;;;;;;6121175;23;20018;-48
2022/04/05 01:00:22;;;;;;;7.28;2.72;;;;;;;;;;6117471;23;20036;-44
2022/04/05 01:02:50;;;;;;;5.50;2.90;;;;;;;;;;6120641;23;20014;-44
2022/04/05 01:05:17;;;;;;;4.70;2.40;;;;;;;;;;6118358;23;20014;-51
2022/04/05 01:07:44;;;;;;;4.13;3.10;;;;;;;;;;6120866;23;20006;-46
2022/04/05 01:10:11;;;;;;;5.22;3.00;;;;;;;;;;6118503;23;20057;-46
2022/04/05 01:12:36;;;;;;;3.97;2.97;;;;;;;;;;6119454;23;20014;-46
2022/04/05 01:15:01;;;;;;;4.22;3.10;;;;;;;;;;6118833;23;20112;-44
2022/04/05 01:17:27;;;;;;;4.35;2.75;;;;;;;;;;6119713;23;20065;-44
2022/04/05 01:19:52;;;;;;;3.75;2.50;;;;;;;;;;6118676;23;20037;-46
2022/04/05 01:22:17;;;;;;;5.50;2.45;;;;;;;;;;6119002;23;20025;-46
2022/04/05 01:24:43;;;;;;;6.93;3.13;;;;;;;;;;6117751;23;20073;-45
2022/04/05 01:27:08;;;;;;;8.02;3.00;;;;;;;;;;6111816;23;20745;-46
2022/04/05 01:29:34;;;;;;;9.13;3.25;;;;;;;;;;6110444;23;20034;-47
2022/04/05 01:32:04;;;;;;;5.45;2.78;;;;;;;;;;6119067;23;20018;-46
2022/04/05 01:34:30;;;;;;;7.68;2.60;;;;;;;;;;6118785;23;20021;-45
2022/04/05 01:36:56;;;;;;;4.65;3.08;;;;;;;;;;6119760;23;20026;-46
2022/04/05 01:39:26;;;;;;;6.50;3.10;;;;;;;;;;6090806;23;20026;-46
2022/04/05 01:41:55;;;;;;;6.03;3.05;;;;;;;;;;6117802;23;20014;-46
2022/04/05 01:44:21;;;;;;;7.80;3.85;;;;;;;;;;6117829;23;20452;-49
2022/04/05 01:46:46;;;;;;;10.38;4.05;;;;;;;;;;6118862;23;20348;-45
2022/04/05 01:49:13;;;;;;;5.65;3.70;;;;;;;;;;6119484;23;20026;-48
2022/04/05 01:51:39;;;;;;;5.97;2.58;;;;;;;;;;6117610;23;20492;-48
2022/04/05 01:54:07;;;;;;;7.70;3.58;;;;;;;;;;6119154;23;20014;-45
2022/04/05 01:56:43;;;;;;;5.32;3.35;;;;;;;;;;6116789;23;20053;-45
2022/04/05 01:59:09;;;;;;;8.07;3.90;;;;;;;;;;6117764;23;20038;-45
2022/04/05 02:01:35;;;;;;;4.63;3.72;;;;;;;;;;6118122;23;20018;-45
2022/04/05 02:04:00;;;;;;;4.72;3.17;;;;;;;;;;6119205;23;20021;-45
2022/04/05 02:06:25;;;;;;;6.35;2.53;;;;;;;;;;6117574;23;20097;-47
2022/04/05 02:08:51;;;;;;;6.35;2.65;;;;;;;;;;6118986;23;20101;-44
2022/04/05 02:11:16;;;;;;;6.63;3.80;;;;;;;;;;6090498;23;20068;-46
2022/04/05 02:13:41;;;;;;;9.30;3.67;;;;;;;;;;6113932;23;20088;-46
2022/04/05 02:16:07;;;;;;;8.95;3.85;;;;;;;;;;6120608;23;20030;-47
2022/04/05 02:18:32;;;;;;;9.25;4.15;;;;;;;;;;6117764;23;20022;-45
2022/04/05 02:20:57;;;;;;;6.60;4.40;;;;;;;;;;6119957;23;20030;-46
2022/04/05 02:23:22;;;;;;;12.88;3.70;;;;;;;;;;6116763;23;20013;-46
2022/04/05 02:25:48;;;;;;;5.78;3.80;;;;;;;;;;6119932;23;20014;-46
2022/04/05 02:28:13;;;;;;;6.50;3.40;;;;;;;;;;6115365;23;20025;-47
2022/04/05 02:30:39;;;;;;;9.93;4.03;;;;;;;;;;6119744;23;20009;-45
2022/04/05 02:33:04;;;;;;;10.98;5.18;;;;;;;;;;6117670;23;20014;-46
2022/04/05 02:35:29;;;;;;;10.65;5.78;;;;;;;;;;6116182;23;20467;-46
2022/04/05 02:37:57;;;;;;;16.80;7.57;;;;;;;;;;6117769;23;20410;-46
2022/04/05 02:40:23;;;;;;;13.23;6.25;;;;;;;;;;6115904;23;20054;-45
2022/04/05 02:42:48;;;;;;;15.60;8.18;;;;;;;;;;6117310;23;20025;-45
2022/04/05 02:45:13;;;;;;;14.55;8.02;;;;;;;;;;6118143;23;20430;-46
2022/04/05 02:47:39;;;;;;;18.00;9.15;;;;;;;;;;6117492;23;20949;-45
2022/04/05 02:50:05;;;;;;;17.08;9.40;;;;;;;;;;6118945;23;20017;-45
2022/04/05 02:52:31;;;;;;;19.27;9.38;;;;;;;;;;6115283;23;20010;-44
2022/04/05 02:54:56;;;;;;;14.63;8.50;;;;;;;;;;6119235;23;20038;-45
2022/04/05 02:57:21;;;;;;;20.13;10.88;;;;;;;;;;6116202;23;20016;-45
2022/04/05 02:59:46;;;;;;;23.80;9.82;;;;;;;;;;6118970;23;20041;-49
2022/04/05 03:02:12;;;;;;;20.17;10.80;;;;;;;;;;6115806;23;20076;-50
2022/04/05 03:04:37;;;;;;;21.98;9.82;;;;;;;;;;6119391;23;20025;-45
2022/04/05 03:07:03;;;;;;;27.63;10.65;;;;;;;;;;6115031;23;20017;-46
2022/04/05 03:09:28;;;;;;;18.30;9.88;;;;;;;;;;6118393;23;20014;-47
2022/04/05 03:11:54;;;;;;;14.85;9.15;;;;;;;;;;6116526;23;20044;-48
2022/04/05 03:14:19;;;;;;;24.42;8.60;;;;;;;;;;6117606;23;20080;-44
2022/04/05 03:16:44;;;;;;;17.65;8.95;;;;;;;;;;6116942;23;20385;-44
2022/04/05 03:19:10;;;;;;;17.85;9.45;;;;;;;;;;6117189;23;20033;-46
2022/04/05 03:21:35;;;;;;;18.30;9.40;;;;;;;;;;6116114;23;20102;-45
2022/04/05 03:24:00;;;;;;;31.73;11.48;;;;;;;;;;6118928;23;20413;-46
2022/04/05 03:26:26;;;;;;;18.67;9.15;;;;;;;;;;6117164;23;20009;-45
2022/04/05 03:28:51;;;;;;;19.27;9.63;;;;;;;;;;6118972;23;20038;-48
2022/04/05 03:31:17;;;;;;;20.35;10.23;;;;;;;;;;6116727;23;20018;-44
2022/04/05 03:33:43;;;;;;;23.10;10.98;;;;;;;;;;6118922;23;20024;-45
2022/04/05 03:36:08;;;;;;;21.65;10.38;;;;;;;;;;6118077;23;20014;-45
2022/04/05 03:38:33;;;;;;;22.83;10.45;;;;;;;;;;6118045;23;20070;-44
2022/04/05 03:40:59;;;;;;;20.33;10.75;;;;;;;;;;6115457;23;20086;-47
2022/04/05 03:43:24;;;;;;;20.65;11.40;;;;;;;;;;6116593;23;20010;-47
2022/04/05 03:45:50;;;;;;;25.55;11.60;;;;;;;;;;6114157;23;20093;-45
2022/04/05 03:48:16;;;;;;;24.52;11.73;;;;;;;;;;6118706;23;20094;-45
2022/04/05 03:50:42;;;;;;;29.52;10.15;;;;;;;;;;6116447;23;20014;-47
2022/04/05 03:53:07;;;;;;;20.08;9.98;;;;;;;;;;6118422;23;20033;-46
2022/04/05 03:55:32;;;;;;;17.42;9.45;;;;;;;;;;6090479;23;20021;-46
2022/04/05 03:57:58;;;;;;;22.50;10.30;;;;;;;;;;6119356;23;20108;-48
2022/04/05 04:00:23;;;;;;;22.20;10.65;;;;;;;;;;6114976;23;20045;-45
2022/04/05 04:02:48;;;;;;;24.48;10.48;;;;;;;;;;6118622;23;20057;-47
2022/04/05 04:05:17;;;;;;;18.40;9.23;;;;;;;;;;6116021;23;20022;-47
2022/04/05 04:07:43;;;;;;;19.95;8.75;;;;;;;;;;6118630;23;20021;-45
2022/04/05 04:10:08;;;;;;;26.45;9.02;;;;;;;;;;6116160;23;20010;-45
2022/04/05 04:12:33;;;;;;;18.48;10.35;;;;;;;;;;6116759;23;20227;-45
2022/04/05 04:14:59;;;;;;;30.33;10.20;;;;;;;;;;6082164;23;20636;-45
2022/04/05 04:17:25;;;;;;;20.90;9.63;;;;;;;;;;6085797;23;20034;-45
2022/04/05 04:19:51;;;;;;;25.05;10.27;;;;;;;;;;6087036;23;20101;-45
2022/04/05 04:22:16;;;;;;;22.60;9.27;;;;;;;;;;6087856;23;20717;-45
2022/04/05 04:24:41;;;;;;;26.52;10.43;;;;;;;;;;6087582;23;20018;-44
2022/04/05 04:27:06;;;;;;;21.13;8.82;;;;;;;;;;6088913;23;20034;-46
2022/04/05 04:29:32;;;;;;;15.23;8.88;;;;;;;;;;6086053;23;20017;-44
2022/04/05 04:31:57;;;;;;;22.35;9.30;;;;;;;;;;6089204;23;20018;-44
2022/04/05 04:34:22;;;;;;;27.65;10.00;;;;;;;;;;6088598;23;20042;-45
2022/04/05 04:36:48;;;;;;;21.27;8.85;;;;;;;;;;6092550;23;20015;-45
2022/04/05 04:39:16;;;;;;;22.77;8.93;;;;;;;;;;6088710;23;20018;-46
2022/04/05 04:41:42;;;;;;;38.85;11.70;;;;;;;;;;6091403;23;20113;-45
2022/04/05 04:44:07;;;;;;;25.63;9.23;;;;;;;;;;6089013;23;20019;-47
2022/04/05 04:46:32;;;;;;;19.55;10.50;;;;;;;;;;6091820;23;20150;-44
2022/04/05 04:48:57;;;;;;;26.67;11.10;;;;;;;;;;6090150;23;20022;-45
2022/04/05 04:51:23;;;;;;;25.15;10.20;;;;;;;;;;6090404;23;20019;-46
2022/04/05 04:53:48;;;;;;;26.35;9.57;;;;;;;;;;6089609;23;20040;-46
2022/04/05 04:56:13;;;;;;;21.80;9.90;;;;;;;;;;6091435;23;20567;-46
2022/04/05 04:58:39;;;;;;;20.27;9.65;;;;;;;;;;6112156;23;20438;-44
2022/04/05 05:01:04;;;;;;;20.27;9.45;;;;;;;;;;6091188;23;20033;-45
2022/04/05 05:03:29;;;;;;;19.88;9.07;;;;;;;;;;6087547;23;20007;-44
2022/04/05 05:05:55;;;;;;;26.88;12.30;;;;;;;;;;6091704;23;20022;-46
2022/04/05 05:08:20;;;;;;;21.77;10.55;;;;;;;;;;6089300;23;20178;-44
2022/04/05 05:10:45;;;;;;;21.60;10.70;;;;;;;;;;6091273;23;20400;-45
2022/04/05 05:13:11;;;;;;;17.67;8.73;;;;;;;;;;6091331;23;20045;-48
2022/04/05 05:15:36;;;;;;;19.65;9.48;;;;;;;;;;6117323;23;20030;-44
2022/04/05 05:18:01;;;;;;;18.77;9.90;;;;;;;;;;6119858;23;20024;-46
2022/04/05 05:20:27;;;;;;;15.13;9.80;;;;;;;;;;6117469;23;21105;-46
2022/04/05 05:22:52;;;;;;;19.52;9.68;;;;;;;;;;6117605;23;20013;-44
2022/04/05 05:25:17;;;;;;;17.80;8.15;;;;;;;;;;6117124;23;20018;-44
2022/04/05 05:27:43;;;;;;;28.02;11.45;;;;;;;;;;6119906;23;20021;-45
2022/04/05 05:30:09;;;;;;;24.25;9.75;;;;;;;;;;6117810;23;20372;-47
2022/04/05 05:32:52;;;;;;;23.73;9.65;;;;;;;;;;6092436;23;20348;-44
2022/04/05 05:35:18;;;;;;;17.17;9.07;;;;;;;;;;6117642;23;20014;-45
2022/04/05 05:37:43;;;;;;;21.73;9.07;;;;;;;;;;6118710;23;20030;-45
2022/04/05 05:40:10;;;;;;;23.13;9.88;;;;;;;;;;6119446;23;20082;-46
2022/04/05 05:42:45;;;;;;;28.75;11.38;;;;;;;;;;6115409;23;20089;-45
2022/04/05 05:45:11;;;;;;;15.55;6.63;;;;;;;;;;6118160;23;20049;-44
2022/04/05 05:47:36;;;;;;;21.08;8.63;;;;;;;;;;6116969;23;20063;-47
2022/04/05 05:50:01;;;;;;;15.32;8.10;;;;;;;;;;6119700;23;20089;-46
2022/04/05 05:52:26;;;;;;;17.20;8.10;;;;;;;;;;6116379;23;20021;-46
2022/04/05 05:54:52;;;;;;;21.05;8.35;;;;;;;;;;6093078;23;20880;-45
2022/04/05 05:57:18;;;;;;;30.05;10.38;;;;;;;;;;6116428;23;20014;-45
2022/04/05 05:59:43;;;;;;;21.48;9.32;;;;;;;;;;6119877;23;20037;-47
2022/04/05 06:02:08;;;;;;;21.58;11.82;;;;;;;;;;6115878;23;20038;-48
2022/04/05 06:04:34;;;;;;;22.02;10.70;;;;;;;;;;6117816;23;20017;-47
2022/04/05 06:06:59;;;;;;;30.20;12.32;;;;;;;;;;6117035;23;20066;-47
2022/04/05 06:09:24;;;;;;;27.75;12.57;;;;;;;;;;6118633;23;20344;-47
2022/04/05 06:11:49;;;;;;;30.33;13.65;;;;;;;;;;6115543;23;20828;-45
2022/04/05 06:14:15;;;;;;;26.73;12.27;;;;;;;;;;6117787;23;20131;-48
2022/04/05 06:16:40;;;;;;;26.08;11.80;;;;;;;;;;6115518;23;20005;-47
2022/04/05 06:19:05;;;;;;;27.80;12.98;;;;;;;;;;6118251;23;20010;-45
2022/04/05 06:21:30;;;;;;;43.42;14.00;;;;;;;;;;6116152;23;20017;-44
2022/04/05 06:23:56;;;;;;;31.00;12.57;;;;;;;;;;6119119;23;20037;-45
2022/04/05 06:26:21;;;;;;;28.30;12.10;;;;;;;;;;6116991;23;20021;-46
2022/04/05 06:28:46;;;;;;;28.50;13.13;;;;;;;;;;6119247;23;20017;-45
2022/04/05 06:31:12;;;;;;;32.45;13.38;;;;;;;;;;6115503;23;20018;-47
2022/04/05 06:33:37;;;;;;;25.75;13.63;;;;;;;;;;6116983;23;20527;-45
2022/04/05 06:36:02;;;;;;;31.52;14.88;;;;;;;;;;6118624;23;20037;-47
2022/04/05 06:38:28;;;;;;;37.42;16.23;;;;;;;;;;6113961;23;20033;-47
2022/04/05 06:40:54;;;;;;;41.13;16.45;;;;;;;;;;6086766;23;20018;-46
2022/04/05 06:43:20;;;;;;;29.20;14.70;;;;;;;;;;6110785;23;20017;-48
2022/04/05 06:45:45;;;;;;;39.25;15.52;;;;;;;;;;6087297;23;20018;-47
2022/04/05 06:48:11;;;;;;;29.52;13.98;;;;;;;;;;6113603;23;20062;-47
2022/04/05 06:50:37;;;;;;;42.30;18.10;;;;;;;;;;6113417;23;20006;-47
2022/04/05 06:53:03;;;;;;;41.83;16.35;;;;;;;;;;6111520;23;20045;-48
2022/04/05 06:55:28;;;;;;;37.47;14.93;;;;;;;;;;6112536;23;20017;-46
2022/04/05 06:57:53;;;;;;;37.75;15.50;;;;;;;;;;6113189;23;20356;-48
2022/04/05 07:00:22;;;;;;;23.45;13.80;;;;;;;;;;6113950;23;20045;-47
2022/04/05 07:02:47;;;;;;;37.85;14.32;;;;;;;;;;6118157;23;20010;-45
2022/04/05 07:05:13;;;;;;;33.58;14.10;;;;;;;;;;6118295;23;20029;-45
2022/04/05 07:07:38;;;;;;;33.50;14.85;;;;;;;;;;6116671;23;20038;-44
2022/04/05 07:10:04;;;;;;;27.85;14.30;;;;;;;;;;6118637;23;20010;-48
2022/04/05 07:12:31;;;;;;;28.20;13.50;;;;;;;;;;6114808;23;20014;-45
2022/04/05 07:14:56;;;;;;;25.30;12.88;;;;;;;;;;6118449;23;20041;-45
2022/04/05 07:17:21;;;;;;;24.83;11.18;;;;;;;;;;6114202;23;20025;-45
2022/04/05 07:19:47;;;;;;;26.70;12.75;;;;;;;;;;6116323;23;20030;-46
2022/04/05 07:22:12;;;;;;;28.50;11.32;;;;;;;;;;6115435;23;20108;-46
2022/04/05 07:24:38;;;;;;;22.45;11.10;;;;;;;;;;6116033;23;20013;-46
2022/04/05 07:27:03;;;;;;;23.77;9.43;;;;;;;;;;6117837;23;20014;-45
2022/04/05 07:29:28;;;;;;;19.25;9.65;;;;;;;;;;6114200;23;20010;-45
2022/04/05 07:31:54;;;;;;;20.38;9.38;;;;;;;;;;6118307;23;20017;-47
2022/04/05 07:34:19;;;;;;;23.90;9.07;;;;;;;;;;6115450;23;20021;-47
2022/04/05 07:36:44;;;;;;;26.10;7.53;;;;;;;;;;6118871;23;20014;-46
2022/04/05 07:39:09;;;;;;;21.00;7.05;;;;;;;;;;6115889;23;20018;-45
2022/04/05 07:41:35;;;;;;;12.98;6.78;;;;;;;;;;6118890;23;20014;-44
2022/04/05 07:44:00;;;;;;;19.05;7.43;;;;;;;;;;6115067;23;20014;-45
2022/04/05 07:46:25;;;;;;;11.70;7.90;;;;;;;;;;6113222;23;20010;-46
2022/04/05 07:48:51;;;;;;;20.55;6.10;;;;;;;;;;6113644;23;20013;-45
2022/04/05 07:51:16;;;;;;;16.30;6.32;;;;;;;;;;6137813;23;20025;-48
2022/04/05 07:53:42;;;;;;;19.05;7.32;;;;;;;;;;6112465;23;20014;-46
2022/04/05 07:56:08;;;;;;;15.38;6.35;;;;;;;;;;6116925;23;20033;-46
2022/04/05 07:58:33;;;;;;;15.90;7.47;;;;;;;;;;6114522;23;20048;-46
2022/04/05 08:00:58;;;;;;;14.73;7.38;;;;;;;;;;6117429;23;20054;-44
2022/04/05 08:03:24;;;;;;;16.13;6.13;;;;;;;;;;6114730;23;20025;-47
2022/04/05 08:05:49;;;;;;;16.83;6.70;;;;;;;;;;6117225;23;20029;-48
2022/04/05 08:08:14;;;;;;;11.95;4.85;;;;;;;;;;6113391;23;20021;-44
2022/04/05 08:10:40;;;;;;;12.27;6.20;;;;;;;;;;6110850;23;20014;-45
2022/04/05 08:13:31;;;;;;;14.32;5.47;;;;;;;;;;6108337;23;20048;-45
2022/04/05 08:15:56;;;;;;;15.82;5.70;;;;;;;;;;6113519;23;20025;-46
2022/04/05 08:18:21;;;;;;;19.13;5.45;;;;;;;;;;6111529;23;20316;-45
2022/04/05 08:20:47;;;;;;;12.68;6.05;;;;;;;;;;6110441;23;20087;-44
2022/04/05 08:23:12;;;;;;;14.05;4.93;;;;;;;;;;6115844;23;20024;-46
2022/04/05 08:25:38;;;;;;;11.48;4.70;;;;;;;;;;6118321;23;20006;-46
2022/04/05 08:28:04;;;;;;;13.25;4.15;;;;;;;;;;6117040;23;20033;-46
2022/04/05 08:30:29;;;;;;;16.77;4.90;;;;;;;;;;6119460;23;20041;-46
2022/04/05 08:32:54;;;;;;;15.75;4.30;;;;;;;;;;6117124;23;20029;-45
2022/04/05 08:35:21;;;;;;;11.68;5.43;;;;;;;;;;6120582;23;20045;-44
2022/04/05 08:37:47;;;;;;;16.55;5.05;;;;;;;;;;6116977;23;20048;-44
2022/04/05 08:40:13;;;;;;;15.93;4.50;;;;;;;;;;6119624;23;20032;-44
2022/04/05 08:42:40;;;;;;;12.50;5.35;;;;;;;;;;6116981;23;20496;-44
2022/04/05 08:45:08;;;;;;;14.68;5.43;;;;;;;;;;6120838;23;20407;-45
2022/04/05 08:47:53;;;;;;;19.38;6.32;;;;;;;;;;6118154;23;20037;-45
2022/04/05 08:50:20;;;;;;;14.52;5.18;;;;;;;;;;6118761;23;20062;-45
2022/04/05 08:52:46;;;;;;;19.75;6.30;;;;;;;;;;6118762;23;20002;-44
2022/04/05 08:55:12;;;;;;;12.20;3.97;;;;;;;;;;6118063;23;20014;-46
2022/04/05 08:57:37;;;;;;;13.77;5.30;;;;;;;;;;6141961;23;20038;-44
2022/04/05 09:00:04;;;;;;;10.68;3.35;;;;;;;;;;6120083;23;20022;-46
2022/04/05 09:02:29;;;;;;;14.52;3.75;;;;;;;;;;6118775;23;20029;-45
2022/04/05 09:04:54;;;;;;;7.78;3.15;;;;;;;;;;6119501;23;20014;-44
2022/04/05 09:07:30;;;;;;;9.18;3.67;;;;;;;;;;6118826;23;20040;-44
2022/04/05 09:10:09;;;;;;;10.52;3.05;;;;;;;;;;6115097;23;20069;-44
2022/04/05 09:12:42;;;;;;;14.88;3.05;;;;;;;;;;6119416;23;20006;-44
2022/04/05 09:15:23;;;;;;;6.93;2.58;;;;;;;;;;6118078;23;20041;-45
2022/04/05 09:17:48;;;;;;;9.77;3.40;;;;;;;;;;6117888;23;20006;-46
2022/04/05 09:20:15;;;;;;;24.40;3.97;;;;;;;;;;6117711;23;20087;-46
2022/04/05 09:22:40;;;;;;;9.75;2.90;;;;;;;;;;6120182;23;20005;-46
2022/04/05 09:25:07;;;;;;;9.07;2.63;;;;;;;;;;6117435;23;20018;-45
2022/04/05 09:27:44;;;;;;;16.92;2.65;;;;;;;;;;6114791;23;20034;-45
2022/04/05 09:30:13;;;;;;;10.80;2.72;;;;;;;;;;6119882;23;20050;-45
2022/04/05 09:32:43;;;;;;;9.13;2.17;;;;;;;;;;6116772;23;20396;-45
2022/04/05 09:35:09;;;;;;;6.63;2.40;;;;;;;;;;6105726;23;20097;-46
2022/04/05 09:37:38;;;;;;;9.25;2.63;;;;;;;;;;6110539;23;20014;-45
2022/04/05 09:40:17;;;;;;;21.27;3.30;;;;;;;;;;6107381;23;20030;-45
2022/04/05 09:43:01;;;;;;;4.90;1.83;;;;;;;;;;6110907;23;20494;-45
2022/04/05 09:45:45;;;;;;;12.40;3.30;;;;;;;;;;6111878;23;20060;-45
2022/04/05 09:48:11;;;;;;;11.32;2.08;;;;;;;;;;6113889;23;20013;-47
2022/04/05 09:51:00;;;;;;;14.90;2.35;;;;;;;;;;6116018;23;20009;-45
2022/04/05 09:53:50;;;;;;;12.73;3.33;;;;;;;;;;6115041;23;20013;-44
2022/04/05 09:56:22;;;;;;;14.93;2.50;;;;;;;;;;6111408;23;20037;-49
2022/04/05 09:58:48;;;;;;;10.63;1.95;;;;;;;;;;6117350;23;20013;-44
2022/04/05 10:01:14;;;;;;;8.32;2.88;;;;;;;;;;6119158;23;20520;-47
2022/04/05 10:03:40;;;;;;;15.60;3.88;;;;;;;;;;6117178;23;20041;-45
2022/04/05 10:06:06;;;;;;;9.82;2.72;;;;;;;;;;6119285;23;20028;-48
2022/04/05 10:08:33;;;;;;;10.45;2.72;;;;;;;;;;6116254;23;20074;-45
2022/04/05 10:10:59;;;;;;;6.70;2.85;;;;;;;;;;6119319;23;20029;-44
2022/04/05 10:13:24;;;;;;;16.70;3.58;;;;;;;;;;6109499;23;20022;-46
2022/04/05 10:15:51;;;;;;;11.15;2.63;;;;;;;;;;6118129;23;20077;-45
2022/04/05 10:18:17;;;;;;;10.27;2.83;;;;;;;;;;6115570;23;20018;-44
2022/04/05 10:20:42;;;;;;;6.22;3.05;;;;;;;;;;6119051;23;20037;-46
2022/04/05 10:23:08;;;;;;;11.55;3.20;;;;;;;;;;6116651;23;20065;-46
2022/04/05 10:25:34;;;;;;;11.68;2.50;;;;;;;;;;6118656;23;20065;-44
2022/04/05 10:27:59;;;;;;;9.20;2.50;;;;;;;;;;6111162;23;20013;-46
2022/04/05 10:30:27;;;;;;;7.03;2.38;;;;;;;;;;6115244;23;20029;-46
2022/04/05 10:32:55;;;;;;;6.57;2.05;;;;;;;;;;6118288;23;20014;-45
2022/04/05 10:35:23;;;;;;;8.45;2.78;;;;;;;;;;6115863;23;20578;-45
2022/04/05 10:37:49;;;;;;;9.18;2.60;;;;;;;;;;6117757;23;20028;-44
2022/04/05 10:40:15;;;;;;;10.02;2.80;;;;;;;;;;6118340;23;20018;-47
2022/04/05 10:42:48;;;;;;;11.15;2.97;;;;;;;;;;6115223;23;20096;-46
2022/04/05 10:45:15;;;;;;;16.98;3.40;;;;;;;;;;6118631;23;20050;-48
2022/04/05 10:47:59;;;;;;;15.98;2.92;;;;;;;;;;6116928;23;20018;-44
2022/04/05 10:50:25;;;;;;;6.63;2.45;;;;;;;;;;6116106;23;20395;-45
2022/04/05 10:53:09;;;;;;;7.65;1.88;;;;;;;;;;6118782;23;20135;-45
2022/04/05 10:55:55;;;;;;;15.85;2.63;;;;;;;;;;6116735;23;20033;-47
2022/04/05 10:58:20;;;;;;;10.05;2.30;;;;;;;;;;6117616;23;20069;-45
2022/04/05 11:00:47;;;;;;;6.15;2.10;;;;;;;;;;6116289;23;20006;-45
2022/04/05 11:03:12;;;;;;;10.65;3.30;;;;;;;;;;6117371;23;20013;-45
2022/04/05 11:05:38;;;;;;;8.93;2.05;;;;;;;;;;6117978;23;20016;-44
2022/04/05 11:08:07;;;;;;;7.97;2.70;;;;;;;;;;6118393;23;20026;-46
2022/04/05 11:10:39;;;;;;;11.20;2.60;;;;;;;;;;6112383;23;20022;-49
2022/04/05 11:13:08;;;;;;;8.82;2.15;;;;;;;;;;6110964;23;20093;-46
2022/04/05 11:15:41;;;;;;;4.40;1.75;;;;;;;;;;6115433;23;20025;-47
2022/04/05 11:18:07;;;;;;;11.88;2.42;;;;;;;;;;6118201;23;20014;-43
2022/04/05 11:20:37;;;;;;;9.40;2.10;;;;;;;;;;6115253;23;20033;-46
2022/04/05 11:23:02;;;;;;;9.60;2.85;;;;;;;;;;6119493;23;20025;-44
2022/04/05 11:25:28;;;;;;;6.63;2.20;;;;;;;;;;6115748;23;20021;-44
2022/04/05 11:27:55;;;;;;;4.43;1.05;;;;;;;;;;6118105;23;20022;-47
2022/04/05 11:30:21;;;;;;;7.63;2.22;;;;;;;;;;6115491;23;20018;-46
2022/04/05 11:33:15;;;;;;;7.82;2.15;;;;;;;;;;6117297;23;20064;-44
2022/04/05 11:35:45;;;;;;;4.53;1.63;;;;;;;;;;6102619;23;20014;-45
2022/04/05 11:38:16;;;;;;;7.40;1.70;;;;;;;;;;6118705;23;20018;-44
2022/04/05 11:40:42;;;;;;;10.55;2.35;;;;;;;;;;6116589;23;20018;-45
2022/04/05 11:43:16;;;;;;;7.97;2.22;;;;;;;;;;6118469;23;20018;-46
2022/04/05 11:45:41;;;;;;;6.50;2.53;;;;;;;;;;6117662;23;20025;-46
2022/04/05 11:48:06;;;;;;;6.72;2.13;;;;;;;;;;6119878;23;20093;-47
2022/04/05 11:50:37;;;;;;;3.83;2.50;;;;;;;;;;6117455;23;20017;-46
2022/04/05 11:53:21;;;;;;;5.43;2.15;;;;;;;;;;6118870;23;20441;-45
2022/04/05 11:56:01;;;;;;;7.20;2.22;;;;;;;;;;6116633;23;20053;-45
2022/04/05 11:58:26;;;;;;;12.35;2.67;;;;;;;;;;6116878;23;20390;-44
2022/04/05 12:00:52;;;;;;;4.80;1.77;;;;;;;;;;6117377;23;20406;-45
2022/04/05 12:03:18;;;;;;;8.73;2.38;;;;;;;;;;6118440;23;20029;-45
2022/04/05 12:05:43;;;;;;;8.30;2.60;;;;;;;;;;6118049;23;20191;-45
2022/04/05 12:08:12;;;;;;;10.15;2.85;;;;;;;;;;6117693;23;20049;-45
2022/04/05 12:10:38;;;;;;;7.95;2.58;;;;;;;;;;6117690;23;20073;-46
2022/04/05 12:13:04;;;;;;;9.90;2.97;;;;;;;;;;6118380;23;20018;-46
2022/04/05 12:15:30;;;;;;;12.95;2.05;;;;;;;;;;6115365;23;20033;-45
2022/04/05 12:18:14;;;;;;;10.75;2.33;;;;;;;;;;6115028;23;20483;-45
2022/04/05 12:20:40;;;;;;;3.50;2.17;;;;;;;;;;6113440;23;20076;-45
2022/04/05 12:23:18;;;;;;;13.68;2.30;;;;;;;;;;6117795;23;20018;-45
2022/04/05 12:26:00;;;;;;;4.93;1.75;;;;;;;;;;6119238;23;20066;-44
2022/04/05 12:28:25;;;;;;;10.55;1.75;;;;;;;;;;6110732;23;20386;-46
2022/04/05 12:30:50;;;;;;;7.65;2.10;;;;;;;;;;6113479;23;20006;-45
2022/04/05 12:33:23;;;;;;;10.38;2.00;;;;;;;;;;6111545;23;20042;-46
2022/04/05 12:35:48;;;;;;;5.20;2.28;;;;;;;;;;6114536;23;20579;-45
2022/04/05 12:38:13;;;;;;;8.30;1.95;;;;;;;;;;6114159;23;20018;-45
2022/04/05 12:40:40;;;;;;;6.82;2.17;;;;;;;;;;6114222;23;20254;-44
2022/04/05 12:43:21;;;;;;;8.85;1.70;;;;;;;;;;6116392;23;20014;-46
2022/04/05 12:45:46;;;;;;;13.07;2.90;;;;;;;;;;6114260;23;20006;-45
2022/04/05 12:48:13;;;;;;;12.77;2.63;;;;;;;;;;6115094;23;20279;-45
2022/04/05 12:50:56;;;;;;;7.43;1.60;;;;;;;;;;6114692;23;20010;-46
2022/04/05 12:53:22;;;;;;;6.13;1.23;;;;;;;;;;6114375;23;20022;-49
2022/04/05 12:56:01;;;;;;;7.80;1.65;;;;;;;;;;6111680;23;20078;-46
2022/04/05 12:58:40;;;;;;;10.50;1.95;;;;;;;;;;6113328;23;20037;-44
2022/04/05 13:01:15;;;;;;;6.80;2.50;;;;;;;;;;6116946;23;20082;-46
2022/04/05 13:03:40;;;;;;;5.55;1.83;;;;;;;;;;6116693;23;20440;-45
2022/04/05 13:06:21;;;;;;;7.90;1.48;;;;;;;;;;6117405;23;20014;-44
2022/04/05 13:08:47;;;;;;;3.17;1.10;;;;;;;;;;6117422;23;20061;-45
2022/04/05 13:11:33;;;;;;;2.15;1.15;;;;;;;;;;6118517;23;20018;-45
2022/04/05 13:14:02;;;;;;;5.75;1.25;;;;;;;;;;6120083;23;20026;-44
2022/04/05 13:16:28;;;;;;;;;;;;;;;;;;6117506;23;20473;-45
2022/04/05 13:18:53;;;;;;;5.28;1.42;;;;;;;;;;6119462;23;19920;-44
2022/04/05 13:21:19;;;;;;;3.90;1.40;;;;;;;;;;6117450;23;20705;-44
2022/04/05 13:24:01;;;;;;;3.33;1.30;;;;;;;;;;6119302;23;20247;-48
2022/04/05 13:26:27;;;;;;;10.52;2.05;;;;;;;;;;6116462;23;20437;-47
2022/04/05 13:29:09;;;;;;;5.90;1.60;;;;;;;;;;6119195;23;20017;-44
2022/04/05 13:31:40;;;;;;;6.88;1.88;;;;;;;;;;6114437;23;20025;-46
2022/04/05 13:34:06;;;;;;;6.10;2.78;;;;;;;;;;6119652;23;20018;-45
2022/04/05 13:36:31;;;;;;;3.42;1.33;;;;;;;;;;6117978;23;20053;-44
2022/04/05 13:38:56;;;;;;;13.93;2.30;;;;;;;;;;6118869;23;20026;-45
2022/04/05 13:41:21;;;;;;;8.60;2.08;;;;;;;;;;6119200;23;20100;-44
2022/04/05 13:43:47;;;;;;;5.22;1.63;;;;;;;;;;6120043;23;20097;-43
2022/04/05 13:46:13;;;;;;;4.90;1.88;;;;;;;;;;6117232;23;20028;-44
2022/04/05 13:48:38;;;;;;;8.65;2.22;;;;;;;;;;6119761;23;20014;-48
2022/04/05 13:51:04;;;;;;;8.45;2.42;;;;;;;;;;6110928;23;20065;-46
2022/04/05 13:53:29;;;;;;;14.25;2.95;;;;;;;;;;6117426;23;20028;-44
2022/04/05 13:55:56;;;;;;;9.30;2.78;;;;;;;;;;6116260;23;20016;-46
2022/04/05 13:58:21;;;;;;;6.57;2.47;;;;;;;;;;6116378;23;20024;-44
2022/04/05 14:00:47;;;;;;;5.43;2.25;;;;;;;;;;6119227;23;20393;-45
2022/04/05 14:03:12;;;;;;;17.15;2.80;;;;;;;;;;6113164;23;20849;-44
2022/04/05 14:05:37;;;;;;;11.57;2.97;;;;;;;;;;6119718;23;20539;-46
2022/04/05 14:08:03;;;;;;;9.68;2.70;;;;;;;;;;6118389;23;20109;-46
2022/04/05 14:10:28;;;;;;;3.88;1.73;;;;;;;;;;6113419;23;20084;-46
2022/04/05 14:12:53;;;;;;;3.47;1.30;;;;;;;;;;6114633;23;20030;-47
2022/04/05 14:15:19;;;;;;;5.15;1.80;;;;;;;;;;6114758;23;20122;-46
2022/04/05 14:17:44;;;;;;;5.55;1.85;;;;;;;;;;6119028;23;20011;-46
2022/04/05 14:20:11;;;;;;;8.60;2.00;;;;;;;;;;6106884;23;20025;-47
2022/04/05 14:22:36;;;;;;;8.10;2.05;;;;;;;;;;6118857;23;20487;-51
2022/04/05 14:25:04;;;;;;;4.88;1.45;;;;;;;;;;6117178;23;20021;-47
2022/04/05 14:27:30;;;;;;;4.22;1.70;;;;;;;;;;6118262;23;20006;-46
2022/04/05 14:29:55;;;;;;;6.32;2.00;;;;;;;;;;6114864;23;20137;-47
2022/04/05 14:32:20;;;;;;;4.60;2.00;;;;;;;;;;6119030;23;20062;-46
2022/04/05 14:34:46;;;;;;;5.10;2.15;;;;;;;;;;6117952;23;20257;-45